sensor_id;sensor_type;location;lat;lon;timestamp;P1;durP1;ratioP1;P2;durP2;ratioP2
32427;SDS011;18882;50.952;4.366;2023-12-14T00:02:00;55.72;;;16.25;;
32427;SDS011;18882;50.952;4.366;2023-12-14T00:04:26;63.47;;;16.45;;
32427;SDS011;18882;50.952;4.366;2023-12-14T00:06:52;61.92;;;16.88;;
32427;SDS011;18882;50.952;4.366;2023-12-14T00:09:17;64.85;;;17.63;;
32427;SDS011;18882;50.952;4.366;2023-12-14T00:11:43;57.80;;;16.58;;
32427;SDS011;18882;50.952;4.366;2023-12-14T00:14:09;65.68;;;17.80;;
32427;SDS011;18882;50.952;4.366;2023-12-14T00:16:34;57.33;;;16.48;;
32427;SDS011;18882;50.952;4.366;2023-12-14T00:19:00;54.03;;;16.67;;
32427;SDS011;18882;50.952;4.366;2023-12-14T00:21:26;64.93;;;17.83;;
32427;SDS011;18882;50.952;4.366;2023-12-14T00:23:52;66.43;;;18.02;;
32427;SDS011;18882;50.952;4.366;2023-12-14T00:26:17;59.38;;;16.70;;
32427;SDS011;18882;50.952;4.366;2023-12-14T00:28:43;69.55;;;17.92;;
32427;SDS011;18882;50.952;4.366;2023-12-14T00:31:09;58.33;;;17.75;;
32427;SDS011;18882;50.952;4.366;2023-12-14T00:33:53;59.75;;;17.02;;
32427;SDS011;18882;50.952;4.366;2023-12-14T00:36:28;63.92;;;17.73;;
32427;SDS011;18882;50.952;4.366;2023-12-14T00:38:56;61.22;;;17.92;;
32427;SDS011;18882;50.952;4.366;2023-12-14T00:41:22;60.30;;;17.85;;
32427;SDS011;18882;50.952;4.366;2023-12-14T00:43:48;72.90;;;19.45;;
32427;SDS011;18882;50.952;4.366;2023-12-14T00:46:13;67.82;;;19.60;;
32427;SDS011;18882;50.952;4.366;2023-12-14T00:48:39;63.85;;;17.92;;
32427;SDS011;18882;50.952;4.366;2023-12-14T00:51:05;75.40;;;18.73;;
32427;SDS011;18882;50.952;4.366;2023-12-14T00:53:31;65.55;;;17.90;;
32427;SDS011;18882;50.952;4.366;2023-12-14T00:55:57;64.85;;;19.48;;
32427;SDS011;18882;50.952;4.366;2023-12-14T00:58:22;67.60;;;17.90;;
32427;SDS011;18882;50.952;4.366;2023-12-14T01:00:48;70.05;;;17.95;;
32427;SDS011;18882;50.952;4.366;2023-12-14T01:03:14;63.33;;;18.17;;
32427;SDS011;18882;50.952;4.366;2023-12-14T01:05:39;71.07;;;19.25;;
32427;SDS011;18882;50.952;4.366;2023-12-14T01:08:06;64.78;;;19.13;;
32427;SDS011;18882;50.952;4.366;2023-12-14T01:10:32;66.55;;;19.02;;
32427;SDS011;18882;50.952;4.366;2023-12-14T01:12:58;61.70;;;18.73;;
32427;SDS011;18882;50.952;4.366;2023-12-14T01:15:24;69.38;;;18.85;;
32427;SDS011;18882;50.952;4.366;2023-12-14T01:17:49;74.57;;;19.23;;
32427;SDS011;18882;50.952;4.366;2023-12-14T01:20:15;77.85;;;20.63;;
32427;SDS011;18882;50.952;4.366;2023-12-14T01:22:41;69.60;;;18.48;;
32427;SDS011;18882;50.952;4.366;2023-12-14T01:25:06;64.57;;;18.02;;
32427;SDS011;18882;50.952;4.366;2023-12-14T01:27:32;57.13;;;16.95;;
32427;SDS011;18882;50.952;4.366;2023-12-14T01:29:58;49.22;;;14.85;;
32427;SDS011;18882;50.952;4.366;2023-12-14T01:32:24;50.20;;;14.43;;
32427;SDS011;18882;50.952;4.366;2023-12-14T01:34:49;48.78;;;14.43;;
32427;SDS011;18882;50.952;4.366;2023-12-14T01:37:15;52.58;;;14.13;;
32427;SDS011;18882;50.952;4.366;2023-12-14T01:39:41;47.40;;;13.02;;
32427;SDS011;18882;50.952;4.366;2023-12-14T01:42:06;50.47;;;15.13;;
32427;SDS011;18882;50.952;4.366;2023-12-14T01:44:32;54.85;;;14.63;;
32427;SDS011;18882;50.952;4.366;2023-12-14T01:46:58;54.88;;;15.30;;
32427;SDS011;18882;50.952;4.366;2023-12-14T01:49:24;44.20;;;13.63;;
32427;SDS011;18882;50.952;4.366;2023-12-14T01:51:49;51.47;;;15.38;;
32427;SDS011;18882;50.952;4.366;2023-12-14T01:54:15;43.85;;;13.95;;
32427;SDS011;18882;50.952;4.366;2023-12-14T01:56:41;45.95;;;14.40;;
32427;SDS011;18882;50.952;4.366;2023-12-14T01:59:06;42.63;;;14.07;;
32427;SDS011;18882;50.952;4.366;2023-12-14T02:04:04;53.35;;;14.30;;
32427;SDS011;18882;50.952;4.366;2023-12-14T02:06:33;40.58;;;14.15;;
32427;SDS011;18882;50.952;4.366;2023-12-14T02:08:59;54.42;;;16.40;;
32427;SDS011;18882;50.952;4.366;2023-12-14T02:11:24;55.03;;;16.35;;
32427;SDS011;18882;50.952;4.366;2023-12-14T02:13:50;59.08;;;16.60;;
32427;SDS011;18882;50.952;4.366;2023-12-14T02:16:16;51.00;;;15.23;;
32427;SDS011;18882;50.952;4.366;2023-12-14T02:18:41;46.83;;;14.40;;
32427;SDS011;18882;50.952;4.366;2023-12-14T02:21:07;61.70;;;15.50;;
32427;SDS011;18882;50.952;4.366;2023-12-14T02:23:33;58.22;;;16.92;;
32427;SDS011;18882;50.952;4.366;2023-12-14T02:25:59;61.67;;;17.63;;
32427;SDS011;18882;50.952;4.366;2023-12-14T02:28:24;61.78;;;16.30;;
32427;SDS011;18882;50.952;4.366;2023-12-14T02:30:50;55.75;;;16.83;;
32427;SDS011;18882;50.952;4.366;2023-12-14T02:33:16;54.95;;;16.50;;
32427;SDS011;18882;50.952;4.366;2023-12-14T02:35:42;64.80;;;18.23;;
32427;SDS011;18882;50.952;4.366;2023-12-14T02:38:08;55.13;;;16.52;;
32427;SDS011;18882;50.952;4.366;2023-12-14T02:40:34;57.72;;;17.98;;
32427;SDS011;18882;50.952;4.366;2023-12-14T02:43:00;66.50;;;16.70;;
32427;SDS011;18882;50.952;4.366;2023-12-14T02:45:25;54.50;;;17.27;;
32427;SDS011;18882;50.952;4.366;2023-12-14T02:47:51;60.45;;;16.48;;
32427;SDS011;18882;50.952;4.366;2023-12-14T02:50:19;66.70;;;19.75;;
32427;SDS011;18882;50.952;4.366;2023-12-14T02:52:44;60.83;;;17.95;;
32427;SDS011;18882;50.952;4.366;2023-12-14T02:55:10;67.80;;;19.13;;
32427;SDS011;18882;50.952;4.366;2023-12-14T02:57:36;59.53;;;18.33;;
32427;SDS011;18882;50.952;4.366;2023-12-14T03:00:01;58.63;;;17.55;;
32427;SDS011;18882;50.952;4.366;2023-12-14T03:02:27;60.60;;;19.45;;
32427;SDS011;18882;50.952;4.366;2023-12-14T03:04:53;57.25;;;17.17;;
32427;SDS011;18882;50.952;4.366;2023-12-14T03:07:19;50.95;;;16.33;;
32427;SDS011;18882;50.952;4.366;2023-12-14T03:09:45;46.80;;;15.13;;
32427;SDS011;18882;50.952;4.366;2023-12-14T03:12:10;40.38;;;13.43;;
32427;SDS011;18882;50.952;4.366;2023-12-14T03:14:36;44.67;;;14.95;;
32427;SDS011;18882;50.952;4.366;2023-12-14T03:17:02;45.80;;;16.77;;
32427;SDS011;18882;50.952;4.366;2023-12-14T03:19:28;51.72;;;16.20;;
32427;SDS011;18882;50.952;4.366;2023-12-14T03:21:54;44.78;;;16.52;;
32427;SDS011;18882;50.952;4.366;2023-12-14T03:24:20;46.97;;;16.15;;
32427;SDS011;18882;50.952;4.366;2023-12-14T03:26:46;41.67;;;15.10;;
32427;SDS011;18882;50.952;4.366;2023-12-14T03:29:11;47.15;;;15.27;;
32427;SDS011;18882;50.952;4.366;2023-12-14T03:31:37;38.25;;;13.77;;
32427;SDS011;18882;50.952;4.366;2023-12-14T03:34:04;45.10;;;13.63;;
32427;SDS011;18882;50.952;4.366;2023-12-14T03:36:30;41.80;;;14.90;;
32427;SDS011;18882;50.952;4.366;2023-12-14T03:38:56;38.45;;;12.93;;
32427;SDS011;18882;50.952;4.366;2023-12-14T03:41:22;35.67;;;11.15;;
32427;SDS011;18882;50.952;4.366;2023-12-14T03:43:47;33.42;;;11.52;;
32427;SDS011;18882;50.952;4.366;2023-12-14T03:46:13;33.83;;;12.35;;
32427;SDS011;18882;50.952;4.366;2023-12-14T03:48:39;28.17;;;12.25;;
32427;SDS011;18882;50.952;4.366;2023-12-14T03:51:04;36.33;;;13.57;;
32427;SDS011;18882;50.952;4.366;2023-12-14T03:53:30;39.45;;;13.88;;
32427;SDS011;18882;50.952;4.366;2023-12-14T03:55:57;37.42;;;14.10;;
32427;SDS011;18882;50.952;4.366;2023-12-14T03:58:23;34.40;;;14.07;;
32427;SDS011;18882;50.952;4.366;2023-12-14T04:00:49;36.30;;;13.75;;
32427;SDS011;18882;50.952;4.366;2023-12-14T04:03:14;32.85;;;13.98;;
32427;SDS011;18882;50.952;4.366;2023-12-14T04:05:40;39.45;;;14.10;;
32427;SDS011;18882;50.952;4.366;2023-12-14T04:08:06;34.88;;;13.15;;
32427;SDS011;18882;50.952;4.366;2023-12-14T04:10:32;33.17;;;13.55;;
32427;SDS011;18882;50.952;4.366;2023-12-14T04:12:58;31.92;;;12.20;;
32427;SDS011;18882;50.952;4.366;2023-12-14T04:15:23;35.45;;;13.95;;
32427;SDS011;18882;50.952;4.366;2023-12-14T04:17:49;34.63;;;13.93;;
32427;SDS011;18882;50.952;4.366;2023-12-14T04:20:15;34.40;;;12.10;;
32427;SDS011;18882;50.952;4.366;2023-12-14T04:22:41;30.45;;;12.60;;
32427;SDS011;18882;50.952;4.366;2023-12-14T04:25:08;33.80;;;13.27;;
32427;SDS011;18882;50.952;4.366;2023-12-14T04:27:34;31.27;;;12.68;;
32427;SDS011;18882;50.952;4.366;2023-12-14T04:29:59;29.85;;;12.07;;
32427;SDS011;18882;50.952;4.366;2023-12-14T04:32:25;34.17;;;12.38;;
32427;SDS011;18882;50.952;4.366;2023-12-14T04:34:51;31.48;;;11.90;;
32427;SDS011;18882;50.952;4.366;2023-12-14T04:37:16;24.85;;;11.18;;
32427;SDS011;18882;50.952;4.366;2023-12-14T04:39:42;27.95;;;11.88;;
32427;SDS011;18882;50.952;4.366;2023-12-14T04:42:08;27.55;;;12.25;;
32427;SDS011;18882;50.952;4.366;2023-12-14T04:44:34;28.73;;;12.43;;
32427;SDS011;18882;50.952;4.366;2023-12-14T04:47:00;28.48;;;12.00;;
32427;SDS011;18882;50.952;4.366;2023-12-14T04:49:25;33.55;;;15.02;;
32427;SDS011;18882;50.952;4.366;2023-12-14T04:51:51;42.42;;;15.63;;
32427;SDS011;18882;50.952;4.366;2023-12-14T04:54:17;33.45;;;14.75;;
32427;SDS011;18882;50.952;4.366;2023-12-14T04:56:45;29.40;;;13.68;;
32427;SDS011;18882;50.952;4.366;2023-12-14T04:59:11;35.25;;;13.40;;
32427;SDS011;18882;50.952;4.366;2023-12-14T05:01:37;29.88;;;12.98;;
32427;SDS011;18882;50.952;4.366;2023-12-14T05:04:02;32.13;;;13.60;;
32427;SDS011;18882;50.952;4.366;2023-12-14T05:06:29;28.95;;;12.75;;
32427;SDS011;18882;50.952;4.366;2023-12-14T05:08:54;29.25;;;11.90;;
32427;SDS011;18882;50.952;4.366;2023-12-14T05:11:20;29.13;;;12.50;;
32427;SDS011;18882;50.952;4.366;2023-12-14T05:13:46;27.00;;;12.27;;
32427;SDS011;18882;50.952;4.366;2023-12-14T05:16:13;29.25;;;12.75;;
32427;SDS011;18882;50.952;4.366;2023-12-14T05:18:39;25.40;;;12.07;;
32427;SDS011;18882;50.952;4.366;2023-12-14T05:21:04;27.35;;;12.88;;
32427;SDS011;18882;50.952;4.366;2023-12-14T05:23:30;27.65;;;13.20;;
32427;SDS011;18882;50.952;4.366;2023-12-14T05:25:56;32.65;;;14.30;;
32427;SDS011;18882;50.952;4.366;2023-12-14T05:28:22;26.75;;;11.77;;
32427;SDS011;18882;50.952;4.366;2023-12-14T05:30:47;32.63;;;13.75;;
32427;SDS011;18882;50.952;4.366;2023-12-14T05:33:13;25.95;;;11.60;;
32427;SDS011;18882;50.952;4.366;2023-12-14T05:35:39;28.58;;;12.63;;
32427;SDS011;18882;50.952;4.366;2023-12-14T05:38:05;24.85;;;12.25;;
32427;SDS011;18882;50.952;4.366;2023-12-14T05:40:30;27.50;;;13.10;;
32427;SDS011;18882;50.952;4.366;2023-12-14T05:42:57;25.50;;;11.95;;
32427;SDS011;18882;50.952;4.366;2023-12-14T05:45:22;26.77;;;13.05;;
32427;SDS011;18882;50.952;4.366;2023-12-14T05:47:48;24.48;;;12.30;;
32427;SDS011;18882;50.952;4.366;2023-12-14T05:50:14;25.38;;;12.32;;
32427;SDS011;18882;50.952;4.366;2023-12-14T05:52:40;28.08;;;12.73;;
32427;SDS011;18882;50.952;4.366;2023-12-14T05:55:07;31.58;;;11.68;;
32427;SDS011;18882;50.952;4.366;2023-12-14T05:57:36;28.05;;;11.77;;
32427;SDS011;18882;50.952;4.366;2023-12-14T06:00:03;25.60;;;12.05;;
32427;SDS011;18882;50.952;4.366;2023-12-14T06:02:30;28.20;;;11.77;;
32427;SDS011;18882;50.952;4.366;2023-12-14T06:04:57;30.75;;;12.23;;
32427;SDS011;18882;50.952;4.366;2023-12-14T06:07:23;25.83;;;12.02;;
32427;SDS011;18882;50.952;4.366;2023-12-14T06:09:49;29.58;;;12.65;;
32427;SDS011;18882;50.952;4.366;2023-12-14T06:12:14;25.75;;;12.15;;
32427;SDS011;18882;50.952;4.366;2023-12-14T06:14:40;25.02;;;11.73;;
32427;SDS011;18882;50.952;4.366;2023-12-14T06:17:06;32.55;;;12.45;;
32427;SDS011;18882;50.952;4.366;2023-12-14T06:19:31;25.15;;;11.10;;
32427;SDS011;18882;50.952;4.366;2023-12-14T06:21:57;29.80;;;12.57;;
32427;SDS011;18882;50.952;4.366;2023-12-14T06:24:23;30.65;;;12.75;;
32427;SDS011;18882;50.952;4.366;2023-12-14T06:26:49;28.33;;;12.88;;
32427;SDS011;18882;50.952;4.366;2023-12-14T06:29:14;25.25;;;12.18;;
32427;SDS011;18882;50.952;4.366;2023-12-14T06:31:40;26.52;;;12.68;;
32427;SDS011;18882;50.952;4.366;2023-12-14T06:34:06;25.73;;;11.73;;
32427;SDS011;18882;50.952;4.366;2023-12-14T06:36:33;30.15;;;12.07;;
32427;SDS011;18882;50.952;4.366;2023-12-14T06:38:59;23.20;;;11.93;;
32427;SDS011;18882;50.952;4.366;2023-12-14T06:41:26;25.02;;;11.43;;
32427;SDS011;18882;50.952;4.366;2023-12-14T06:43:53;24.75;;;11.45;;
32427;SDS011;18882;50.952;4.366;2023-12-14T06:46:19;25.27;;;11.32;;
32427;SDS011;18882;50.952;4.366;2023-12-14T06:48:45;25.10;;;11.40;;
32427;SDS011;18882;50.952;4.366;2023-12-14T06:51:12;25.35;;;10.60;;
32427;SDS011;18882;50.952;4.366;2023-12-14T06:53:39;28.48;;;10.38;;
32427;SDS011;18882;50.952;4.366;2023-12-14T06:56:06;21.45;;;10.85;;
32427;SDS011;18882;50.952;4.366;2023-12-14T06:58:36;26.10;;;10.55;;
32427;SDS011;18882;50.952;4.366;2023-12-14T07:01:03;27.50;;;11.23;;
32427;SDS011;18882;50.952;4.366;2023-12-14T07:03:33;20.75;;;9.98;;
32427;SDS011;18882;50.952;4.366;2023-12-14T07:05:58;22.98;;;9.90;;
32427;SDS011;18882;50.952;4.366;2023-12-14T07:08:24;24.13;;;10.27;;
32427;SDS011;18882;50.952;4.366;2023-12-14T07:10:50;21.17;;;8.77;;
32427;SDS011;18882;50.952;4.366;2023-12-14T07:13:16;23.98;;;9.98;;
32427;SDS011;18882;50.952;4.366;2023-12-14T07:15:42;16.38;;;8.57;;
32427;SDS011;18882;50.952;4.366;2023-12-14T07:18:07;24.73;;;9.82;;
32427;SDS011;18882;50.952;4.366;2023-12-14T07:20:33;20.75;;;9.10;;
32427;SDS011;18882;50.952;4.366;2023-12-14T07:22:59;18.95;;;9.25;;
32427;SDS011;18882;50.952;4.366;2023-12-14T07:25:24;24.60;;;10.38;;
32427;SDS011;18882;50.952;4.366;2023-12-14T07:27:50;25.90;;;9.32;;
32427;SDS011;18882;50.952;4.366;2023-12-14T07:30:16;23.38;;;8.82;;
32427;SDS011;18882;50.952;4.366;2023-12-14T07:32:42;18.75;;;9.23;;
32427;SDS011;18882;50.952;4.366;2023-12-14T07:35:08;19.60;;;9.93;;
32427;SDS011;18882;50.952;4.366;2023-12-14T07:37:35;22.20;;;9.20;;
32427;SDS011;18882;50.952;4.366;2023-12-14T07:40:01;22.40;;;9.23;;
32427;SDS011;18882;50.952;4.366;2023-12-14T07:42:28;28.58;;;10.30;;
32427;SDS011;18882;50.952;4.366;2023-12-14T07:44:53;24.85;;;8.65;;
32427;SDS011;18882;50.952;4.366;2023-12-14T07:47:19;21.38;;;8.75;;
32427;SDS011;18882;50.952;4.366;2023-12-14T07:49:45;23.42;;;9.95;;
32427;SDS011;18882;50.952;4.366;2023-12-14T07:52:11;20.83;;;9.52;;
32427;SDS011;18882;50.952;4.366;2023-12-14T07:54:38;19.20;;;9.23;;
32427;SDS011;18882;50.952;4.366;2023-12-14T07:57:04;22.02;;;9.48;;
32427;SDS011;18882;50.952;4.366;2023-12-14T07:59:30;22.20;;;9.85;;
32427;SDS011;18882;50.952;4.366;2023-12-14T08:01:56;18.13;;;8.57;;
32427;SDS011;18882;50.952;4.366;2023-12-14T08:04:21;19.90;;;8.00;;
32427;SDS011;18882;50.952;4.366;2023-12-14T08:06:48;22.92;;;8.15;;
32427;SDS011;18882;50.952;4.366;2023-12-14T08:09:14;17.23;;;7.72;;
32427;SDS011;18882;50.952;4.366;2023-12-14T08:11:39;20.50;;;7.75;;
32427;SDS011;18882;50.952;4.366;2023-12-14T08:14:05;14.90;;;7.82;;
32427;SDS011;18882;50.952;4.366;2023-12-14T08:16:31;16.15;;;7.15;;
32427;SDS011;18882;50.952;4.366;2023-12-14T08:18:57;22.00;;;8.13;;
32427;SDS011;18882;50.952;4.366;2023-12-14T08:21:23;12.98;;;6.90;;
32427;SDS011;18882;50.952;4.366;2023-12-14T08:23:49;15.57;;;7.18;;
32427;SDS011;18882;50.952;4.366;2023-12-14T08:26:15;17.73;;;7.50;;
32427;SDS011;18882;50.952;4.366;2023-12-14T08:28:40;14.57;;;7.15;;
32427;SDS011;18882;50.952;4.366;2023-12-14T08:31:06;13.85;;;7.07;;
32427;SDS011;18882;50.952;4.366;2023-12-14T08:33:34;11.90;;;6.78;;
32427;SDS011;18882;50.952;4.366;2023-12-14T08:36:00;19.33;;;6.97;;
32427;SDS011;18882;50.952;4.366;2023-12-14T08:38:26;17.73;;;6.80;;
32427;SDS011;18882;50.952;4.366;2023-12-14T08:40:52;17.48;;;6.68;;
32427;SDS011;18882;50.952;4.366;2023-12-14T08:43:17;11.90;;;6.30;;
32427;SDS011;18882;50.952;4.366;2023-12-14T08:45:43;19.38;;;6.90;;
32427;SDS011;18882;50.952;4.366;2023-12-14T08:48:09;14.50;;;7.47;;
32427;SDS011;18882;50.952;4.366;2023-12-14T08:50:34;15.25;;;7.25;;
32427;SDS011;18882;50.952;4.366;2023-12-14T08:53:00;13.10;;;6.43;;
32427;SDS011;18882;50.952;4.366;2023-12-14T08:55:26;18.15;;;7.68;;
32427;SDS011;18882;50.952;4.366;2023-12-14T08:57:53;14.68;;;7.63;;
32427;SDS011;18882;50.952;4.366;2023-12-14T09:00:18;17.77;;;7.78;;
32427;SDS011;18882;50.952;4.366;2023-12-14T09:02:45;19.48;;;8.57;;
32427;SDS011;18882;50.952;4.366;2023-12-14T09:05:11;14.02;;;7.55;;
32427;SDS011;18882;50.952;4.366;2023-12-14T09:07:38;18.85;;;7.45;;
32427;SDS011;18882;50.952;4.366;2023-12-14T09:10:04;15.45;;;7.20;;
32427;SDS011;18882;50.952;4.366;2023-12-14T09:12:31;11.77;;;6.75;;
32427;SDS011;18882;50.952;4.366;2023-12-14T09:14:58;12.55;;;6.88;;
32427;SDS011;18882;50.952;4.366;2023-12-14T09:17:24;18.92;;;7.03;;
32427;SDS011;18882;50.952;4.366;2023-12-14T09:19:50;16.30;;;6.38;;
32427;SDS011;18882;50.952;4.366;2023-12-14T09:22:16;11.50;;;6.43;;
32427;SDS011;18882;50.952;4.366;2023-12-14T09:24:42;19.05;;;7.38;;
32427;SDS011;18882;50.952;4.366;2023-12-14T09:27:08;11.40;;;6.43;;
32427;SDS011;18882;50.952;4.366;2023-12-14T09:29:34;16.25;;;7.32;;
32427;SDS011;18882;50.952;4.366;2023-12-14T09:32:00;12.45;;;6.78;;
32427;SDS011;18882;50.952;4.366;2023-12-14T09:34:25;13.32;;;6.20;;
32427;SDS011;18882;50.952;4.366;2023-12-14T09:36:51;19.30;;;6.40;;
32427;SDS011;18882;50.952;4.366;2023-12-14T09:39:17;12.75;;;6.30;;
32427;SDS011;18882;50.952;4.366;2023-12-14T09:41:44;25.30;;;6.75;;
32427;SDS011;18882;50.952;4.366;2023-12-14T09:44:11;15.82;;;6.70;;
32427;SDS011;18882;50.952;4.366;2023-12-14T09:46:37;12.02;;;5.88;;
32427;SDS011;18882;50.952;4.366;2023-12-14T09:49:04;13.88;;;6.00;;
32427;SDS011;18882;50.952;4.366;2023-12-14T09:51:30;12.57;;;7.07;;
32427;SDS011;18882;50.952;4.366;2023-12-14T09:53:56;13.55;;;5.68;;
32427;SDS011;18882;50.952;4.366;2023-12-14T09:56:25;11.95;;;4.90;;
32427;SDS011;18882;50.952;4.366;2023-12-14T09:58:51;18.13;;;5.45;;
32427;SDS011;18882;50.952;4.366;2023-12-14T10:01:21;11.65;;;4.88;;
32427;SDS011;18882;50.952;4.366;2023-12-14T10:03:49;10.90;;;4.88;;
32427;SDS011;18882;50.952;4.366;2023-12-14T10:06:15;8.43;;;4.68;;
32427;SDS011;18882;50.952;4.366;2023-12-14T10:08:42;10.98;;;4.60;;
32427;SDS011;18882;50.952;4.366;2023-12-14T10:11:20;15.15;;;4.82;;
32427;SDS011;18882;50.952;4.366;2023-12-14T10:13:46;7.90;;;4.43;;
32427;SDS011;18882;50.952;4.366;2023-12-14T10:16:11;10.65;;;4.15;;
32427;SDS011;18882;50.952;4.366;2023-12-14T10:18:37;9.75;;;4.32;;
32427;SDS011;18882;50.952;4.366;2023-12-14T10:21:05;11.68;;;4.65;;
32427;SDS011;18882;50.952;4.366;2023-12-14T10:23:33;11.15;;;5.28;;
32427;SDS011;18882;50.952;4.366;2023-12-14T10:26:00;12.85;;;4.80;;
32427;SDS011;18882;50.952;4.366;2023-12-14T10:28:25;11.07;;;5.13;;
32427;SDS011;18882;50.952;4.366;2023-12-14T10:30:52;13.40;;;5.07;;
32427;SDS011;18882;50.952;4.366;2023-12-14T10:33:18;12.82;;;5.82;;
32427;SDS011;18882;50.952;4.366;2023-12-14T10:35:43;9.18;;;4.38;;
32427;SDS011;18882;50.952;4.366;2023-12-14T10:38:11;7.72;;;4.90;;
32427;SDS011;18882;50.952;4.366;2023-12-14T10:40:43;9.77;;;4.55;;
32427;SDS011;18882;50.952;4.366;2023-12-14T10:43:20;8.95;;;4.43;;
32427;SDS011;18882;50.952;4.366;2023-12-14T10:45:46;7.28;;;3.80;;
32427;SDS011;18882;50.952;4.366;2023-12-14T10:48:16;12.20;;;4.85;;
32427;SDS011;18882;50.952;4.366;2023-12-14T10:50:45;10.07;;;4.35;;
32427;SDS011;18882;50.952;4.366;2023-12-14T10:53:13;6.90;;;4.35;;
32427;SDS011;18882;50.952;4.366;2023-12-14T10:55:43;8.43;;;4.13;;
32427;SDS011;18882;50.952;4.366;2023-12-14T10:58:10;10.40;;;3.70;;
32427;SDS011;18882;50.952;4.366;2023-12-14T11:00:36;10.00;;;4.68;;
32427;SDS011;18882;50.952;4.366;2023-12-14T11:03:06;9.45;;;3.58;;
32427;SDS011;18882;50.952;4.366;2023-12-14T11:05:32;9.38;;;4.10;;
32427;SDS011;18882;50.952;4.366;2023-12-14T11:08:05;14.13;;;3.65;;
32427;SDS011;18882;50.952;4.366;2023-12-14T11:10:37;6.72;;;3.22;;
32427;SDS011;18882;50.952;4.366;2023-12-14T11:13:12;7.03;;;3.05;;
32427;SDS011;18882;50.952;4.366;2023-12-14T11:15:45;6.85;;;2.67;;
32427;SDS011;18882;50.952;4.366;2023-12-14T11:18:25;6.90;;;2.95;;
32427;SDS011;18882;50.952;4.366;2023-12-14T11:20:53;7.07;;;2.65;;
32427;SDS011;18882;50.952;4.366;2023-12-14T11:25:50;7.03;;;3.28;;
32427;SDS011;18882;50.952;4.366;2023-12-14T11:28:17;9.20;;;3.30;;
32427;SDS011;18882;50.952;4.366;2023-12-14T11:30:44;9.70;;;3.10;;
32427;SDS011;18882;50.952;4.366;2023-12-14T11:33:13;11.00;;;2.95;;
32427;SDS011;18882;50.952;4.366;2023-12-14T11:35:40;6.60;;;3.20;;
32427;SDS011;18882;50.952;4.366;2023-12-14T11:38:06;9.98;;;3.08;;
32427;SDS011;18882;50.952;4.366;2023-12-14T11:40:37;9.43;;;3.67;;
32427;SDS011;18882;50.952;4.366;2023-12-14T11:43:09;8.85;;;3.03;;
32427;SDS011;18882;50.952;4.366;2023-12-14T11:45:35;9.93;;;3.88;;
32427;SDS011;18882;50.952;4.366;2023-12-14T11:48:05;9.98;;;3.53;;
32427;SDS011;18882;50.952;4.366;2023-12-14T11:50:32;7.72;;;2.97;;
32427;SDS011;18882;50.952;4.366;2023-12-14T11:52:59;9.88;;;4.53;;
32427;SDS011;18882;50.952;4.366;2023-12-14T11:55:31;7.93;;;3.88;;
32427;SDS011;18882;50.952;4.366;2023-12-14T11:57:58;10.00;;;3.95;;
32427;SDS011;18882;50.952;4.366;2023-12-14T12:00:25;15.38;;;5.38;;
32427;SDS011;18882;50.952;4.366;2023-12-14T12:02:52;16.70;;;5.93;;
32427;SDS011;18882;50.952;4.366;2023-12-14T12:08:04;11.20;;;4.90;;
32427;SDS011;18882;50.952;4.366;2023-12-14T12:10:29;14.38;;;5.20;;
32427;SDS011;18882;50.952;4.366;2023-12-14T12:13:02;8.75;;;4.97;;
32427;SDS011;18882;50.952;4.366;2023-12-14T12:15:32;14.48;;;5.38;;
32427;SDS011;18882;50.952;4.366;2023-12-14T12:18:02;16.55;;;5.13;;
32427;SDS011;18882;50.952;4.366;2023-12-14T12:20:29;12.55;;;4.53;;
32427;SDS011;18882;50.952;4.366;2023-12-14T12:22:54;10.55;;;4.53;;
32427;SDS011;18882;50.952;4.366;2023-12-14T12:25:20;11.77;;;4.78;;
32427;SDS011;18882;50.952;4.366;2023-12-14T12:27:47;12.88;;;5.85;;
32427;SDS011;18882;50.952;4.366;2023-12-14T12:30:13;11.82;;;5.70;;
32427;SDS011;18882;50.952;4.366;2023-12-14T12:32:40;14.25;;;6.32;;
32427;SDS011;18882;50.952;4.366;2023-12-14T12:35:06;12.65;;;5.65;;
32427;SDS011;18882;50.952;4.366;2023-12-14T12:37:33;16.27;;;6.13;;
32427;SDS011;18882;50.952;4.366;2023-12-14T12:39:59;14.48;;;6.30;;
32427;SDS011;18882;50.952;4.366;2023-12-14T12:42:24;19.35;;;6.10;;
32427;SDS011;18882;50.952;4.366;2023-12-14T12:44:50;15.70;;;6.43;;
32427;SDS011;18882;50.952;4.366;2023-12-14T12:47:16;13.13;;;5.63;;
32427;SDS011;18882;50.952;4.366;2023-12-14T12:49:42;20.38;;;5.30;;
32427;SDS011;18882;50.952;4.366;2023-12-14T12:52:08;13.00;;;4.53;;
32427;SDS011;18882;50.952;4.366;2023-12-14T12:54:34;12.55;;;5.10;;
32427;SDS011;18882;50.952;4.366;2023-12-14T12:57:00;12.73;;;5.22;;
32427;SDS011;18882;50.952;4.366;2023-12-14T12:59:26;12.77;;;5.78;;
32427;SDS011;18882;50.952;4.366;2023-12-14T13:01:52;15.77;;;6.00;;
32427;SDS011;18882;50.952;4.366;2023-12-14T13:04:19;12.00;;;5.88;;
32427;SDS011;18882;50.952;4.366;2023-12-14T13:06:46;11.75;;;5.38;;
32427;SDS011;18882;50.952;4.366;2023-12-14T13:09:13;14.68;;;6.97;;
32427;SDS011;18882;50.952;4.366;2023-12-14T13:11:39;14.07;;;7.13;;
32427;SDS011;18882;50.952;4.366;2023-12-14T13:14:05;12.00;;;5.22;;
32427;SDS011;18882;50.952;4.366;2023-12-14T13:16:33;13.13;;;5.35;;
32427;SDS011;18882;50.952;4.366;2023-12-14T13:19:00;12.07;;;5.85;;
32427;SDS011;18882;50.952;4.366;2023-12-14T13:21:25;9.48;;;5.45;;
32427;SDS011;18882;50.952;4.366;2023-12-14T13:23:51;15.23;;;5.40;;
32427;SDS011;18882;50.952;4.366;2023-12-14T13:26:18;9.38;;;4.13;;
32427;SDS011;18882;50.952;4.366;2023-12-14T13:28:43;10.10;;;4.68;;
32427;SDS011;18882;50.952;4.366;2023-12-14T13:31:09;16.25;;;5.10;;
32427;SDS011;18882;50.952;4.366;2023-12-14T13:33:35;9.80;;;4.53;;
32427;SDS011;18882;50.952;4.366;2023-12-14T13:36:01;12.07;;;5.05;;
32427;SDS011;18882;50.952;4.366;2023-12-14T13:38:26;11.20;;;4.22;;
32427;SDS011;18882;50.952;4.366;2023-12-14T13:40:52;7.78;;;3.88;;
32427;SDS011;18882;50.952;4.366;2023-12-14T13:43:18;11.95;;;4.78;;
32427;SDS011;18882;50.952;4.366;2023-12-14T13:45:44;8.52;;;3.97;;
32427;SDS011;18882;50.952;4.366;2023-12-14T13:48:09;8.75;;;4.13;;
32427;SDS011;18882;50.952;4.366;2023-12-14T13:50:36;12.73;;;4.15;;
32427;SDS011;18882;50.952;4.366;2023-12-14T13:53:01;9.02;;;4.53;;
32427;SDS011;18882;50.952;4.366;2023-12-14T13:55:27;8.90;;;4.63;;
32427;SDS011;18882;50.952;4.366;2023-12-14T13:57:53;8.50;;;5.05;;
32427;SDS011;18882;50.952;4.366;2023-12-14T14:00:22;12.43;;;5.82;;
32427;SDS011;18882;50.952;4.366;2023-12-14T14:02:49;9.48;;;5.32;;
32427;SDS011;18882;50.952;4.366;2023-12-14T14:05:15;13.35;;;4.95;;
32427;SDS011;18882;50.952;4.366;2023-12-14T14:07:41;10.80;;;5.10;;
32427;SDS011;18882;50.952;4.366;2023-12-14T14:10:07;10.38;;;5.40;;
32427;SDS011;18882;50.952;4.366;2023-12-14T14:12:33;12.95;;;6.13;;
32427;SDS011;18882;50.952;4.366;2023-12-14T14:14:59;11.35;;;5.50;;
32427;SDS011;18882;50.952;4.366;2023-12-14T14:17:24;16.05;;;5.63;;
32427;SDS011;18882;50.952;4.366;2023-12-14T14:19:50;10.27;;;5.50;;
32427;SDS011;18882;50.952;4.366;2023-12-14T14:22:15;10.65;;;5.53;;
32427;SDS011;18882;50.952;4.366;2023-12-14T14:24:41;14.07;;;7.40;;
32427;SDS011;18882;50.952;4.366;2023-12-14T14:27:07;10.43;;;6.28;;
32427;SDS011;18882;50.952;4.366;2023-12-14T14:29:33;11.45;;;5.78;;
32427;SDS011;18882;50.952;4.366;2023-12-14T14:31:59;20.10;;;8.07;;